createdAt,value
2023-02-16T00:02:48.417Z,-0.75
2023-02-16T00:06:19.313Z,-0.78
2023-02-16T00:09:49.092Z,-0.79
2023-02-16T00:13:47.560Z,-0.80
2023-02-16T00:17:14.953Z,-0.82
2023-02-16T00:20:42.560Z,-0.88
2023-02-16T00:24:10.504Z,-0.91
2023-02-16T00:27:38.606Z,-0.95
2023-02-16T00:31:06.357Z,-0.97
2023-02-16T00:34:45.923Z,-1.00
2023-02-16T00:38:16.072Z,-1.04
2023-02-16T00:41:52.381Z,-1.06
2023-02-16T00:45:25.842Z,-1.09
2023-02-16T00:48:53.051Z,-1.11
2023-02-16T00:52:36.650Z,-1.11
2023-02-16T00:56:04.046Z,-1.10
2023-02-16T00:59:31.577Z,-1.09
2023-02-16T01:03:01.943Z,-1.08
2023-02-16T01:06:46.716Z,-1.05
2023-02-16T01:10:32.315Z,-1.04
2023-02-16T01:13:59.980Z,-1.02
2023-02-16T01:17:27.518Z,-1.01
2023-02-16T01:20:54.774Z,-1.00
2023-02-16T01:24:22.008Z,-0.98
2023-02-16T01:27:51.452Z,-0.97
2023-02-16T01:31:19.638Z,-0.98
2023-02-16T01:34:46.837Z,-0.99
2023-02-16T01:38:19.670Z,-1.01
2023-02-16T01:42:03.364Z,-1.05
2023-02-16T01:45:35.139Z,-1.08
2023-02-16T01:49:02.264Z,-1.11
2023-02-16T01:52:35.855Z,-1.13
2023-02-16T01:56:06.142Z,-1.18
2023-02-16T01:59:41.956Z,-1.21
2023-02-16T02:03:34.250Z,-1.24
2023-02-16T02:07:01.562Z,-1.28
2023-02-16T02:10:36.002Z,-1.30
2023-02-16T02:14:08.557Z,-1.33
2023-02-16T02:17:37.469Z,-1.35
2023-02-16T02:21:45.491Z,-1.36
2023-02-16T02:25:58.775Z,-1.36
2023-02-16T02:29:44.281Z,-1.36
2023-02-16T02:33:27.796Z,-1.37
2023-02-16T02:37:10.174Z,-1.38
2023-02-16T02:40:50.910Z,-1.40
2023-02-16T02:44:22.398Z,-1.40
2023-02-16T02:47:51.048Z,-1.40
2023-02-16T02:51:30.811Z,-1.41
2023-02-16T02:55:20.718Z,-1.40
2023-02-16T02:59:12.970Z,-1.38
2023-02-16T03:02:44.397Z,-1.39
2023-02-16T03:06:16.498Z,-1.39
2023-02-16T03:09:44.020Z,-1.37
2023-02-16T03:13:18.503Z,-1.36
2023-02-16T03:17:06.182Z,-1.35
2023-02-16T03:20:54.240Z,-1.36
2023-02-16T03:24:45.643Z,-1.36
2023-02-16T03:28:32.009Z,-1.38
2023-02-16T03:32:00.335Z,-1.40
2023-02-16T03:35:29.835Z,-1.44
2023-02-16T03:38:56.144Z,-1.45
2023-02-16T03:42:25.340Z,-1.45
2023-02-16T03:45:52.945Z,-1.45
2023-02-16T03:49:20.951Z,-1.46
2023-02-16T03:52:48.528Z,-1.45
2023-02-16T03:56:15.945Z,-1.44
2023-02-16T03:59:45.978Z,-1.45
2023-02-16T04:03:13.807Z,-1.45
2023-02-16T04:06:51.057Z,-1.46
2023-02-16T04:10:19.066Z,-1.49
2023-02-16T04:13:46.322Z,-1.51
2023-02-16T04:17:13.796Z,-1.54
2023-02-16T04:20:41.074Z,-1.56
2023-02-16T04:24:09.378Z,-1.59
2023-02-16T04:27:37.296Z,-1.63
2023-02-16T04:31:04.881Z,-1.66
2023-02-16T04:34:32.217Z,-1.68
2023-02-16T04:37:59.609Z,-1.70
2023-02-16T04:41:27.475Z,-1.72
2023-02-16T04:44:57.308Z,-1.74
2023-02-16T04:48:34.723Z,-1.74
2023-02-16T04:52:12.469Z,-1.74
2023-02-16T04:55:39.674Z,-1.74
2023-02-16T04:59:06.918Z,-1.73
2023-02-16T05:02:37.082Z,-1.73
2023-02-16T05:06:07.984Z,-1.74
2023-02-16T05:09:35.071Z,-1.76
2023-02-16T05:13:20.143Z,-1.78
2023-02-16T05:16:47.920Z,-1.80
2023-02-16T05:20:16.092Z,-1.81
2023-02-16T05:23:43.167Z,-1.83
2023-02-16T05:27:13.245Z,-1.83
2023-02-16T05:30:40.368Z,-1.83
2023-02-16T05:34:07.702Z,-1.83
2023-02-16T05:37:37.442Z,-1.85
2023-02-16T05:41:05.045Z,-1.86
2023-02-16T05:44:32.577Z,-1.87
2023-02-16T05:47:59.938Z,-1.86
2023-02-16T05:51:30.698Z,-1.85
2023-02-16T05:54:57.847Z,-1.84
2023-02-16T05:58:25.015Z,-1.82
2023-02-16T06:01:52.739Z,-1.81
2023-02-16T06:05:20.473Z,-1.80
2023-02-16T06:08:47.705Z,-1.80
2023-02-16T06:12:15.128Z,-1.78
2023-02-16T06:15:42.388Z,-1.77
2023-02-16T06:19:10.564Z,-1.76
2023-02-16T06:22:37.888Z,-1.75
2023-02-16T06:26:05.399Z,-1.71
2023-02-16T06:29:39.962Z,-1.67
2023-02-16T06:33:07.822Z,-1.60
2023-02-16T06:36:36.214Z,-1.53
2023-02-16T06:40:03.631Z,-1.45
2023-02-16T06:43:31.051Z,-1.37
2023-02-16T06:46:58.528Z,-1.26
2023-02-16T06:50:25.873Z,-1.15
2023-02-16T06:53:53.068Z,-1.05
2023-02-16T06:57:20.267Z,-0.92
2023-02-16T07:00:51.499Z,-0.77
2023-02-16T07:04:21.419Z,-0.61
2023-02-16T07:08:09.058Z,-0.43
2023-02-16T07:11:36.631Z,-0.28
2023-02-16T07:15:04.364Z,-0.11
2023-02-16T07:18:32.097Z,0.07
2023-02-16T07:21:59.191Z,0.25
2023-02-16T07:25:26.495Z,0.47
2023-02-16T07:28:54.197Z,0.67
2023-02-16T07:32:24.539Z,0.88
2023-02-16T07:35:51.816Z,1.08
2023-02-16T07:39:19.850Z,1.28
2023-02-16T07:42:47.006Z,1.45
2023-02-16T07:46:14.557Z,1.60
2023-02-16T07:49:42.478Z,1.75
2023-02-16T07:53:12.535Z,1.92
2023-02-16T07:56:41.150Z,2.13
2023-02-16T08:00:12.469Z,2.38
2023-02-16T08:03:40.547Z,2.64
2023-02-16T08:07:08.111Z,2.80
2023-02-16T08:10:35.488Z,2.93
2023-02-16T08:14:03.037Z,3.02
2023-02-16T08:17:40.536Z,3.10
2023-02-16T08:21:15.002Z,3.14
2023-02-16T08:24:42.840Z,3.14
2023-02-16T08:28:10.315Z,3.13
2023-02-16T08:31:41.808Z,3.09
2023-02-16T08:35:10.690Z,3.05
2023-02-16T08:38:38.184Z,3.04
2023-02-16T08:42:05.840Z,3.04
2023-02-16T08:45:33.213Z,3.06
2023-02-16T08:49:01.634Z,3.11
2023-02-16T08:52:29.136Z,3.18
2023-02-16T08:55:57.731Z,3.23
2023-02-16T08:59:28.490Z,3.31
2023-02-16T09:02:59.608Z,3.41
2023-02-16T09:06:27.461Z,3.51
2023-02-16T09:10:04.452Z,3.65
2023-02-16T09:13:31.553Z,3.76
2023-02-16T09:16:58.723Z,3.89
2023-02-16T09:20:27.439Z,4.02
2023-02-16T09:23:57.777Z,4.17
2023-02-16T09:27:24.875Z,4.33
2023-02-16T09:30:52.098Z,4.48
2023-02-16T09:34:21.190Z,4.60
2023-02-16T09:37:49.947Z,4.72
2023-02-16T09:41:28.311Z,4.85
2023-02-16T09:45:03.785Z,4.94
2023-02-16T09:48:39.427Z,5.04
2023-02-16T09:52:22.434Z,5.09
2023-02-16T09:56:04.215Z,5.13
2023-02-16T09:59:45.307Z,5.16
2023-02-16T10:03:37.397Z,5.24
2023-02-16T10:07:23.567Z,5.31
2023-02-16T10:11:02.717Z,5.41
2023-02-16T10:14:34.701Z,5.50
2023-02-16T10:18:07.476Z,5.59
2023-02-16T10:21:35.162Z,5.66
2023-02-16T10:25:07.450Z,5.78
2023-02-16T10:28:43.549Z,5.87
2023-02-16T10:32:21.274Z,5.91
2023-02-16T10:35:50.340Z,5.95
2023-02-16T10:39:28.723Z,5.98
2023-02-16T10:43:02.704Z,6.01
2023-02-16T10:46:37.763Z,6.11
2023-02-16T10:50:07.208Z,6.21
2023-02-16T10:53:42.102Z,6.31
2023-02-16T10:57:17.054Z,6.44
2023-02-16T11:00:53.916Z,6.54
2023-02-16T11:04:35.885Z,6.63
2023-02-16T11:08:10.990Z,6.73
2023-02-16T11:11:43.086Z,6.83
2023-02-16T11:15:27.641Z,6.93
2023-02-16T11:19:02.893Z,6.99
2023-02-16T11:22:34.665Z,7.02
2023-02-16T11:26:05.969Z,7.06
2023-02-16T11:29:34.396Z,7.10
2023-02-16T11:33:04.631Z,7.20
2023-02-16T11:36:37.452Z,7.31
2023-02-16T11:40:09.405Z,7.45
2023-02-16T11:43:39.718Z,7.60
2023-02-16T11:47:10.089Z,7.73
2023-02-16T11:50:39.900Z,7.86
2023-02-16T11:54:07.774Z,8.00
2023-02-16T11:57:37.458Z,8.11
2023-02-16T12:01:18.114Z,8.17
2023-02-16T12:04:57.843Z,8.24
2023-02-16T12:08:30.224Z,8.27
2023-02-16T12:12:15.590Z,8.21
2023-02-16T12:15:51.810Z,8.20
2023-02-16T12:19:32.904Z,8.21
2023-02-16T12:23:05.943Z,8.17
2023-02-16T12:26:48.810Z,8.13
2023-02-16T12:30:29.824Z,8.16
2023-02-16T12:34:07.489Z,8.24
2023-02-16T12:37:45.883Z,8.37
2023-02-16T12:41:25.962Z,8.45
2023-02-16T12:44:56.002Z,8.48
2023-02-16T12:48:37.304Z,8.60
2023-02-16T12:52:08.633Z,8.71
2023-02-16T12:55:44.137Z,8.86
2023-02-16T12:59:21.526Z,8.95
2023-02-16T13:02:53.634Z,9.03
2023-02-16T13:06:29.942Z,9.10
2023-02-16T13:10:05.879Z,9.17
2023-02-16T13:13:36.716Z,9.23
2023-02-16T13:17:10.408Z,9.31
2023-02-16T13:20:42.252Z,9.39
2023-02-16T13:24:17.735Z,9.44
2023-02-16T13:27:53.554Z,9.50
2023-02-16T13:31:33.752Z,9.54
2023-02-16T13:35:18.047Z,9.57
2023-02-16T13:39:29.961Z,9.60
2023-02-16T13:43:21.337Z,9.64
2023-02-16T13:46:52.600Z,9.66
2023-02-16T13:50:32.790Z,9.67
2023-02-16T13:54:02.969Z,9.66
2023-02-16T13:58:02.884Z,9.65
2023-02-16T14:01:44.803Z,9.64
2023-02-16T14:05:23.731Z,9.62
2023-02-16T14:09:29.063Z,9.59
2023-02-16T14:12:56.232Z,9.57
2023-02-16T14:16:46.070Z,9.53
2023-02-16T14:20:30.121Z,9.48
2023-02-16T14:24:03.359Z,9.42
2023-02-16T14:27:49.918Z,9.36
2023-02-16T14:31:22.903Z,9.29
2023-02-16T14:34:58.463Z,9.23
2023-02-16T14:38:29.652Z,9.17
2023-02-16T14:42:07.426Z,9.13
2023-02-16T14:45:56.609Z,9.09
2023-02-16T14:50:15.412Z,9.04
2023-02-16T14:54:19.268Z,8.98
2023-02-16T14:57:53.859Z,8.92
2023-02-16T15:01:23.981Z,8.83
2023-02-16T15:04:51.305Z,8.75
2023-02-16T15:08:22.568Z,8.66
2023-02-16T15:12:14.335Z,8.54
2023-02-16T15:15:48.648Z,8.39
2023-02-16T15:19:25.497Z,8.26
2023-02-16T15:22:54.649Z,8.14
2023-02-16T15:26:24.517Z,8.01
2023-02-16T15:30:05.994Z,7.90
2023-02-16T15:33:37.354Z,7.78
2023-02-16T15:37:20.237Z,7.66
2023-02-16T15:40:47.564Z,7.53
2023-02-16T15:44:34.320Z,7.39
2023-02-16T15:48:22.450Z,7.25
2023-02-16T15:51:50.396Z,7.12
2023-02-16T15:55:18.194Z,7.01
2023-02-16T15:58:45.854Z,6.88
2023-02-16T16:02:17.566Z,6.76
2023-02-16T16:05:54.308Z,6.63
2023-02-16T16:09:26.717Z,6.49
2023-02-16T16:12:57.994Z,6.36
2023-02-16T16:16:25.220Z,6.21
2023-02-16T16:19:52.732Z,6.08
2023-02-16T16:23:28.461Z,5.95
2023-02-16T16:26:58.111Z,5.81
2023-02-16T16:30:33.702Z,5.68
2023-02-16T16:34:02.928Z,5.55
2023-02-16T16:37:32.514Z,5.44
2023-02-16T16:40:59.063Z,5.31
2023-02-16T16:44:36.157Z,5.19
2023-02-16T16:48:10.657Z,5.07
2023-02-16T16:51:43.034Z,4.96
2023-02-16T16:55:26.324Z,4.87
2023-02-16T16:58:54.661Z,4.76
2023-02-16T17:02:21.805Z,4.69
2023-02-16T17:05:49.444Z,4.64
2023-02-16T17:09:16.948Z,4.60
2023-02-16T17:12:44.444Z,4.60
2023-02-16T17:16:18.140Z,4.57
2023-02-16T17:19:45.401Z,4.53
2023-02-16T17:23:15.246Z,4.48
2023-02-16T17:26:40.813Z,4.41
2023-02-16T17:30:11.260Z,4.33
2023-02-16T17:33:38.521Z,4.25
2023-02-16T17:37:08.477Z,4.19
2023-02-16T17:40:35.999Z,4.14
2023-02-16T17:44:04.250Z,4.09
2023-02-16T17:47:31.432Z,4.06
2023-02-16T17:50:59.239Z,4.00
2023-02-16T17:54:26.660Z,3.95
2023-02-16T17:57:55.893Z,3.92
2023-02-16T18:01:23.604Z,3.90
2023-02-16T18:04:51.032Z,3.90
2023-02-16T18:08:18.198Z,3.90
2023-02-16T18:11:45.467Z,3.90
2023-02-16T18:15:13.005Z,3.92
2023-02-16T18:18:40.284Z,3.95
2023-02-16T18:22:07.710Z,3.99
2023-02-16T18:25:35.714Z,4.02
2023-02-16T18:29:03.000Z,4.05
2023-02-16T18:32:30.172Z,4.07
2023-02-16T18:35:58.909Z,4.08
2023-02-16T18:39:26.260Z,4.09
2023-02-16T18:42:53.624Z,4.11
2023-02-16T18:46:20.765Z,4.15
2023-02-16T18:49:49.530Z,4.20
2023-02-16T18:53:17.508Z,4.23
2023-02-16T18:56:44.656Z,4.26
2023-02-16T19:00:16.431Z,4.30
2023-02-16T19:03:43.603Z,4.34
2023-02-16T19:07:11.896Z,4.37
2023-02-16T19:10:39.019Z,4.42
2023-02-16T19:14:06.345Z,4.48
2023-02-16T19:17:33.467Z,4.54
2023-02-16T19:21:00.729Z,4.59
2023-02-16T19:24:28.054Z,4.62
2023-02-16T19:27:55.636Z,4.64
2023-02-16T19:31:25.520Z,4.65
2023-02-16T19:34:52.773Z,4.67
2023-02-16T19:38:20.122Z,4.69
2023-02-16T19:41:56.185Z,4.72
2023-02-16T19:45:23.487Z,4.73
2023-02-16T19:48:51.359Z,4.72
2023-02-16T19:52:18.477Z,4.72
2023-02-16T19:55:46.402Z,4.71
2023-02-16T19:59:15.397Z,4.70
2023-02-16T20:02:42.583Z,4.70
2023-02-16T20:06:18.674Z,4.70
2023-02-16T20:09:45.862Z,4.70
2023-02-16T20:13:13.554Z,4.70
2023-02-16T20:16:40.926Z,4.71
2023-02-16T20:20:10.087Z,4.74
2023-02-16T20:23:38.108Z,4.76
2023-02-16T20:27:06.059Z,4.80
2023-02-16T20:30:33.336Z,4.83
2023-02-16T20:34:01.659Z,4.87
2023-02-16T20:37:30.335Z,4.91
2023-02-16T20:40:57.552Z,4.96
2023-02-16T20:44:25.148Z,5.00
2023-02-16T20:47:52.409Z,5.05
2023-02-16T20:51:20.510Z,5.09
2023-02-16T20:54:48.145Z,5.12
2023-02-16T20:58:15.640Z,5.15
2023-02-16T21:01:46.489Z,5.16
2023-02-16T21:05:14.820Z,5.18
2023-02-16T21:08:41.997Z,5.21
2023-02-16T21:12:09.739Z,5.23
2023-02-16T21:15:36.903Z,5.26
2023-02-16T21:19:09.238Z,5.27
2023-02-16T21:22:41.498Z,5.26
2023-02-16T21:26:09.811Z,5.25
2023-02-16T21:29:37.077Z,5.23
2023-02-16T21:33:04.612Z,5.22
2023-02-16T21:36:31.744Z,5.22
2023-02-16T21:40:16.433Z,5.22
2023-02-16T21:43:43.641Z,5.22
2023-02-16T21:47:30.719Z,5.22
2023-02-16T21:50:57.880Z,5.22
2023-02-16T21:54:45.052Z,5.23
2023-02-16T21:58:12.247Z,5.25
2023-02-16T22:01:42.666Z,5.28
2023-02-16T22:05:10.387Z,5.31
2023-02-16T22:08:39.175Z,5.32
2023-02-16T22:12:06.492Z,5.33
2023-02-16T22:15:36.671Z,5.31
2023-02-16T22:19:08.965Z,5.29
2023-02-16T22:22:36.258Z,5.26
2023-02-16T22:26:06.549Z,5.24
2023-02-16T22:29:34.362Z,5.22
2023-02-16T22:33:01.664Z,5.21
2023-02-16T22:36:29.612Z,5.21
2023-02-16T22:39:58.940Z,5.22
2023-02-16T22:43:30.556Z,5.23
2023-02-16T22:46:59.424Z,5.24
2023-02-16T22:50:32.094Z,5.24
2023-02-16T22:54:00.730Z,5.22
2023-02-16T22:57:28.044Z,5.22
2023-02-16T23:00:55.984Z,5.22
2023-02-16T23:04:24.192Z,5.23
2023-02-16T23:07:51.308Z,5.23
2023-02-16T23:11:18.649Z,5.22
2023-02-16T23:14:48.144Z,5.19
2023-02-16T23:18:15.404Z,5.14
2023-02-16T23:21:43.286Z,5.06
2023-02-16T23:25:28.601Z,5.01
2023-02-16T23:28:59.055Z,4.93
2023-02-16T23:32:26.099Z,4.87
2023-02-16T23:35:54.273Z,4.81
2023-02-16T23:39:21.415Z,4.74
2023-02-16T23:42:48.938Z,4.69
2023-02-16T23:46:16.446Z,4.64
2023-02-16T23:49:46.773Z,4.59
2023-02-16T23:53:14.025Z,4.55
2023-02-16T23:56:42.464Z,4.51
